Time;durP1;ratioP1;P1;durP2;ratioP2;P2;SDS_P1;SDS_P2;PMS_P1;PMS_P2;Temp;Humidity;BMP_temperature;BMP_pressure;BME280_temperature;BME280_humidity;BME280_pressure;Samples;Min_cycle;Max_cycle;Signal;HPM_P1;HPM_P2
2023/01/15 00:08:48;;;;;;;29.73;10.77;;;;;;;1.43;100.00;100868.88;30980131;28;20069;-73
2023/01/15 00:39:10;;;;;;;27.80;10.47;;;;;;;1.15;100.00;100850.13;31002571;28;20055;-71
2023/01/15 00:54:13;;;;;;;22.27;10.13;;;;;;;1.19;100.00;100855.53;30995789;28;20058;-73
2023/01/15 01:09:15;;;;;;;34.17;12.67;;;;;;;1.16;100.00;100845.53;30999568;28;20108;-72
2023/01/15 01:24:21;;;;;;;22.47;10.60;;;;;;;1.24;100.00;100836.59;31044125;28;20058;-73
2023/01/15 01:39:23;;;;;;;19.88;11.05;;;;;;;1.28;100.00;100837.50;30996005;28;20052;-73
2023/01/15 01:54:28;;;;;;;27.10;10.23;;;;;;;1.12;100.00;100831.28;30982870;28;20057;-76
2023/01/15 02:09:30;;;;;;;33.77;11.73;;;;;;;1.09;100.00;100813.22;30999785;28;20563;-77
2023/01/15 02:24:41;;;;;;;28.30;11.27;;;;;;;1.22;100.00;100833.47;30988181;28;20050;-76
2023/01/15 02:39:45;;;;;;;27.60;11.73;;;;;;;1.06;100.00;100833.41;30984185;28;20062;-76
2023/01/15 02:55:05;;;;;;;21.10;9.27;;;;;;;1.40;100.00;100828.66;30980359;28;20058;-77
2023/01/15 03:10:07;;;;;;;25.87;9.93;;;;;;;1.14;100.00;100842.44;30987039;28;20538;-72
2023/01/15 03:25:15;;;;;;;20.40;10.30;;;;;;;1.10;100.00;100825.50;30989549;28;20504;-72
2023/01/15 03:40:17;;;;;;;26.30;10.43;;;;;;;0.91;100.00;100829.53;31003169;28;20054;-76
2023/01/15 03:55:53;;;;;;;29.93;12.93;;;;;;;0.87;100.00;100807.25;31004067;28;20121;-76
2023/01/15 07:36:45;;;;;;;31.97;14.20;;;;;;;0.90;100.00;100731.72;31563330;27;20426;-72
2023/01/15 07:51:47;;;;;;;35.53;13.30;;;;;;;1.27;100.00;100775.19;31226589;28;20049;-74
2023/01/15 08:06:49;;;;;;;34.47;13.13;;;;;;;1.31;100.00;100775.28;31191942;28;20124;-76
2023/01/15 08:21:51;;;;;;;50.10;13.67;;;;;;;1.48;100.00;100777.69;31188774;28;20062;-77
2023/01/15 08:36:58;;;;;;;49.83;13.70;;;;;;;1.52;100.00;100762.50;31093658;28;20057;-78
2023/01/15 08:52:00;;;;;;;38.50;13.40;;;;;;;1.59;100.00;100762.72;31084576;28;20054;-78
2023/01/15 09:07:02;;;;;;;36.30;12.43;;;;;;;1.79;100.00;100749.44;31111867;28;20104;-78
2023/01/15 09:22:04;;;;;;;42.30;13.10;;;;;;;1.85;100.00;100732.81;31107916;28;20517;-79
2023/01/15 09:37:06;;;;;;;27.97;12.40;;;;;;;1.85;100.00;100722.09;31091396;28;20076;-77
2023/01/15 09:52:23;;;;;;;29.83;13.27;;;;;;;1.98;100.00;100714.75;31111813;28;20057;-76
2023/01/15 10:07:39;;;;;;;23.10;11.47;;;;;;;2.04;100.00;100703.44;31100250;28;20135;-79
2023/01/15 10:23:09;;;;;;;34.53;12.47;;;;;;;2.15;100.00;100698.31;31102580;28;20057;-77
2023/01/15 10:38:32;;;;;;;25.70;13.17;;;;;;;2.23;100.00;100700.06;31115491;28;20054;-78
2023/01/15 10:53:54;;;;;;;46.40;13.50;;;;;;;2.41;100.00;100689.75;31103566;28;20411;-78
2023/01/15 11:08:57;;;;;;;33.33;12.93;;;;;;;2.08;100.00;100675.97;31087427;28;20050;-79
2023/01/15 11:24:17;;;;;;;35.83;13.10;;;;;;;2.20;100.00;100679.31;31113975;28;20062;-80
2023/01/15 11:39:27;;;;;;;32.73;13.50;;;;;;;2.27;100.00;100670.66;31103146;28;20045;-78
2023/01/15 11:54:31;;;;;;;39.43;13.47;;;;;;;2.27;100.00;100668.00;31104624;28;20062;-81
2023/01/15 12:09:38;;;;;;;31.47;13.27;;;;;;;2.24;100.00;100669.47;31123638;28;20050;-76
2023/01/15 12:25:08;;;;;;;38.87;15.07;;;;;;;2.24;100.00;100674.81;31130855;28;20354;-77
2023/01/15 12:40:13;;;;;;;39.17;13.40;;;;;;;2.32;100.00;100687.25;31122562;28;20046;-77
2023/01/15 12:55:21;;;;;;;40.87;15.07;;;;;;;2.27;100.00;100695.56;31094698;28;20057;-77
2023/01/15 16:30:04;;;;;;;68.00;18.50;;;;;;;2.32;100.00;100568.59;31561984;27;20918;-81
2023/01/15 16:45:20;;;;;;;56.73;17.10;;;;;;;2.20;100.00;100660.56;31585135;28;20052;-80
2023/01/15 17:00:29;;;;;;;60.33;19.00;;;;;;;2.22;100.00;100669.03;31579911;28;20045;-80
2023/01/15 17:15:36;;;;;;;59.83;19.17;;;;;;;2.27;100.00;100684.84;31566555;28;20134;-77
2023/01/15 17:30:38;;;;;;;56.33;18.00;;;;;;;2.17;100.00;100674.66;31501600;28;20137;-77
2023/01/15 17:45:41;;;;;;;64.47;19.07;;;;;;;2.10;100.00;100663.78;31462535;28;20041;-80
2023/01/15 18:16:04;;;;;;;62.77;17.43;;;;;;;2.06;100.00;100649.53;31503481;28;20067;-81
2023/01/15 18:31:06;;;;;;;47.80;16.97;;;;;;;2.01;100.00;100639.06;31492114;28;20048;-78
2023/01/15 19:01:30;;;;;;;49.33;18.83;;;;;;;2.02;100.00;100641.41;31453747;28;20049;-79
2023/01/15 19:31:53;;;;;;;52.23;16.60;;;;;;;2.56;100.00;100631.88;31491600;28;20078;-80
2023/01/15 20:02:15;;;;;;;61.40;16.63;;;;;;;2.10;100.00;100620.94;31433976;28;20563;-81
2023/01/15 20:17:17;;;;;;;65.93;18.70;;;;;;;2.13;100.00;100598.78;31462290;28;20495;-79
2023/01/15 20:32:22;;;;;;;59.73;19.17;;;;;;;2.04;100.00;100584.81;31469025;28;20049;-79
2023/01/15 21:02:47;;;;;;;56.73;19.10;;;;;;;2.03;100.00;100596.66;31479749;28;20058;-79
2023/01/15 21:17:49;;;;;;;57.23;18.93;;;;;;;2.18;100.00;100605.78;31449444;28;20123;-79
2023/01/15 21:32:51;;;;;;;66.23;21.37;;;;;;;2.54;100.00;100618.06;31455923;28;20425;-78
2023/01/15 21:47:53;;;;;;;51.00;21.03;;;;;;;2.48;100.00;100619.44;31485251;28;20067;-80
2023/01/15 22:02:57;;;;;;;51.03;19.17;;;;;;;2.84;100.00;100635.13;31460886;28;20094;-80
2023/01/15 22:17:59;;;;;;;60.03;22.30;;;;;;;2.76;100.00;100614.69;31474623;28;20406;-79
2023/01/15 22:33:01;;;;;;;59.40;18.57;;;;;;;2.69;100.00;100620.66;31471922;28;20075;-78
2023/01/15 22:48:03;;;;;;;48.43;15.90;;;;;;;2.80;100.00;100610.16;31481094;28;20052;-80
2023/01/15 23:03:05;;;;;;;53.93;18.37;;;;;;;2.81;100.00;100633.19;31468056;28;20045;-78
2023/01/15 23:18:07;;;;;;;55.43;21.93;;;;;;;2.60;100.00;100648.81;31481281;28;20052;-78
2023/01/15 23:33:09;;;;;;;56.57;18.57;;;;;;;2.64;100.00;100644.28;31475343;28;20244;-78
2023/01/15 23:48:11;;;;;;;51.77;17.83;;;;;;;2.63;100.00;100637.38;31478134;28;20074;-78
